createdAt,value
2023-04-02T00:00:24.005Z,99872.56
2023-04-02T00:03:06.064Z,99872.56
2023-04-02T00:06:00.574Z,99876.53
2023-04-02T00:08:46.864Z,99872.81
2023-04-02T00:11:38.223Z,99871.19
2023-04-02T00:14:31.911Z,99869.34
2023-04-02T00:17:13.863Z,99864.81
2023-04-02T00:19:54.430Z,99864.31
2023-04-02T00:22:38.995Z,99859.78
2023-04-02T00:25:25.433Z,99865.94
2023-04-02T00:28:03.674Z,99876.66
2023-04-02T00:30:53.634Z,99864.41
2023-04-02T00:33:40.167Z,99855.88
2023-04-02T00:36:29.945Z,99874.81
2023-04-02T00:39:13.386Z,99869.47
2023-04-02T00:42:06.247Z,99871.63
2023-04-02T00:45:20.627Z,99873.22
2023-04-02T00:48:21.728Z,99868.16
2023-04-02T00:51:05.687Z,99880.44
2023-04-02T00:53:39.730Z,99877.22
2023-04-02T00:56:31.553Z,99875.91
2023-04-02T00:59:06.213Z,99872.19
2023-04-02T01:01:44.257Z,99867.34
2023-04-02T01:04:40.008Z,99872.44
2023-04-02T01:07:18.734Z,99870.59
2023-04-02T01:10:29.165Z,99875.69
2023-04-02T01:13:20.890Z,99876.22
2023-04-02T01:16:04.960Z,99875.69
2023-04-02T01:18:53.454Z,99878.91
2023-04-02T01:22:00.822Z,99872.22
2023-04-02T01:24:40.200Z,99873.06
2023-04-02T01:27:19.835Z,99879.47
2023-04-02T01:30:02.222Z,99877.84
2023-04-02T01:32:43.893Z,99871.47
2023-04-02T01:35:21.300Z,99874.09
2023-04-02T01:38:10.303Z,99881.06
2023-04-02T01:41:01.854Z,99876.50
2023-04-02T01:43:46.166Z,99874.66
2023-04-02T01:46:48.998Z,99881.06
2023-04-02T01:49:27.287Z,99877.84
2023-04-02T01:52:18.958Z,99878.38
2023-04-02T01:54:53.375Z,99885.09
2023-04-02T01:57:36.343Z,99888.56
2023-04-02T02:00:21.457Z,99870.94
2023-04-02T02:03:08.583Z,99869.88
2023-04-02T02:05:53.057Z,99876.78
2023-04-02T02:08:55.405Z,99878.94
2023-04-02T02:11:40.927Z,99869.63
2023-04-02T02:14:28.405Z,99879.50
2023-04-02T02:17:14.242Z,99879.50
2023-04-02T02:20:04.784Z,99877.34
2023-04-02T02:22:45.521Z,99881.63
2023-04-02T02:25:24.852Z,99881.63
2023-04-02T02:28:22.666Z,99878.44
2023-04-02T02:31:20.046Z,99885.63
2023-04-02T02:34:10.349Z,99897.63
2023-04-02T02:36:55.935Z,99874.69
2023-04-02T02:39:43.287Z,99890.19
2023-04-02T02:42:26.842Z,99894.47
2023-04-02T02:45:03.931Z,99896.88
2023-04-02T02:47:48.581Z,99901.16
2023-04-02T02:50:31.351Z,99900.88
2023-04-02T02:53:17.461Z,99903.28
2023-04-02T02:56:01.067Z,99891.00
2023-04-02T02:58:42.596Z,99902.47
2023-04-02T03:01:27.579Z,99908.06
2023-04-02T03:04:00.124Z,99905.13
2023-04-02T03:06:42.122Z,99879.53
2023-04-02T03:09:29.881Z,99900.09
2023-04-02T03:12:14.365Z,99904.63
2023-04-02T03:15:00.130Z,99904.34
2023-04-02T03:17:44.660Z,99907.28
2023-04-02T03:20:25.219Z,99896.88
2023-04-02T03:23:17.439Z,99904.34
2023-04-02T03:26:10.351Z,99895.56
2023-04-02T03:28:56.903Z,99899.53
2023-04-02T03:31:38.052Z,99899.53
2023-04-02T03:34:23.948Z,99902.22
2023-04-02T03:37:10.712Z,99899.78
2023-04-02T03:40:13.647Z,99911.81
2023-04-02T03:43:05.577Z,99903.53
2023-04-02T03:45:45.997Z,99922.75
2023-04-02T03:48:36.142Z,99923.28
2023-04-02T03:51:26.822Z,99931.78
2023-04-02T03:54:04.788Z,99930.44
2023-04-02T03:56:55.972Z,99929.66
2023-04-02T04:00:01.829Z,99910.94
2023-04-02T04:02:56.540Z,99930.69
2023-04-02T04:05:36.994Z,99945.09
2023-04-02T04:08:33.953Z,99946.94
2023-04-02T04:11:14.709Z,99945.63
2023-04-02T04:13:58.585Z,99947.72
2023-04-02T04:16:41.253Z,99951.47
2023-04-02T04:19:22.103Z,99931.16
2023-04-02T04:22:02.543Z,99952.78
2023-04-02T04:24:43.388Z,99958.38
2023-04-02T04:27:35.199Z,99948.22
2023-04-02T04:30:24.242Z,99967.44
2023-04-02T04:33:05.937Z,99965.84
2023-04-02T04:35:49.526Z,99967.47
2023-04-02T04:38:39.919Z,99974.13
2023-04-02T04:41:39.006Z,99969.56
2023-04-02T04:44:24.296Z,99977.31
2023-04-02T04:47:15.718Z,99976.78
2023-04-02T04:50:04.815Z,99986.41
2023-04-02T04:52:49.411Z,99988.28
2023-04-02T04:55:37.762Z,99998.97
2023-04-02T04:58:27.890Z,99977.31
2023-04-02T05:01:12.190Z,99983.66
2023-04-02T05:04:08.765Z,99989.03
2023-04-02T05:07:00.612Z,100007.44
2023-04-02T05:09:45.129Z,100005.63
2023-04-02T05:12:34.672Z,99996.03
2023-04-02T05:15:28.771Z,100012.88
2023-04-02T05:18:25.991Z,100002.78
2023-04-02T05:21:17.422Z,100008.41
2023-04-02T05:24:12.396Z,100011.09
2023-04-02T05:27:08.055Z,100018.31
2023-04-02T05:30:08.471Z,100014.59
2023-04-02T05:32:53.092Z,100015.16
2023-04-02T05:35:35.962Z,100022.63
2023-04-02T05:38:22.507Z,100019.44
2023-04-02T05:41:26.181Z,100016.25
2023-04-02T05:44:16.467Z,100017.31
2023-04-02T05:47:00.470Z,100015.41
2023-04-02T05:49:48.240Z,100022.63
2023-04-02T05:52:36.939Z,100024.75
2023-04-02T05:55:47.082Z,100017.75
2023-04-02T05:58:45.307Z,100019.88
2023-04-02T06:02:05.783Z,100018.50
2023-04-02T06:04:58.287Z,100013.97
2023-04-02T06:07:56.712Z,100029.16
2023-04-02T06:10:35.772Z,100032.06
2023-04-02T06:13:14.172Z,100034.16
2023-04-02T06:15:54.264Z,100036.25
2023-04-02T06:18:38.805Z,100035.16
2023-04-02T06:21:12.880Z,100022.88
2023-04-02T06:23:55.043Z,100059.97
2023-04-02T06:26:47.372Z,100060.50
2023-04-02T06:29:34.676Z,100059.38
2023-04-02T06:32:23.547Z,100051.91
2023-04-02T06:35:07.590Z,100020.66
2023-04-02T06:37:46.233Z,100060.44
2023-04-02T06:40:49.047Z,100058.53
2023-04-02T06:43:46.168Z,100054.47
2023-04-02T06:46:35.577Z,100057.41
2023-04-02T06:49:26.439Z,100053.31
2023-04-02T06:52:13.717Z,100037.00
2023-04-02T06:55:12.345Z,100049.22
2023-04-02T06:57:48.483Z,100047.91
2023-04-02T07:00:43.524Z,100057.47
2023-04-02T07:03:38.996Z,100062.72
2023-04-02T07:06:37.508Z,100069.84
2023-04-02T07:09:24.997Z,100077.53
2023-04-02T07:12:05.379Z,100084.19
2023-04-02T07:14:41.174Z,100080.13
2023-04-02T07:17:22.824Z,100078.16
2023-04-02T07:20:00.235Z,100084.22
2023-04-02T07:22:42.402Z,100078.00
2023-04-02T07:25:31.164Z,100070.78
2023-04-02T07:28:15.388Z,100087.94
2023-04-02T07:31:04.824Z,100090.28
2023-04-02T07:33:42.229Z,100096.03
2023-04-02T07:36:29.758Z,100101.06
2023-04-02T07:39:24.796Z,100099.88
2023-04-02T07:41:59.439Z,100104.28
2023-04-02T07:44:40.126Z,100096.72
2023-04-02T07:47:15.405Z,100107.63
2023-04-02T07:49:56.521Z,100114.78
2023-04-02T07:52:46.965Z,100117.41
2023-04-02T07:55:38.176Z,100120.84
2023-04-02T07:58:26.678Z,100115.09
2023-04-02T08:01:05.921Z,100098.97
2023-04-02T08:03:47.925Z,100119.97
2023-04-02T08:06:30.278Z,100118.28
2023-04-02T08:09:12.387Z,100125.78
2023-04-02T08:11:58.650Z,100115.25
2023-04-02T08:14:36.889Z,100123.16
2023-04-02T08:17:13.181Z,100116.81
2023-04-02T08:19:55.007Z,100103.97
2023-04-02T08:23:01.682Z,100129.84
2023-04-02T08:25:37.509Z,100123.38
2023-04-02T08:28:32.887Z,100121.19
2023-04-02T08:31:11.372Z,100133.88
2023-04-02T08:33:46.238Z,100132.19
2023-04-02T08:36:24.622Z,100127.00
2023-04-02T08:39:02.224Z,100109.66
2023-04-02T08:41:59.591Z,100127.59
2023-04-02T08:45:22.988Z,100126.56
2023-04-02T08:48:21.370Z,100130.25
2023-04-02T08:51:00.234Z,100134.28
2023-04-02T08:53:40.105Z,100141.56
2023-04-02T08:56:35.070Z,100140.88
2023-04-02T08:59:30.345Z,100138.66
2023-04-02T09:02:31.182Z,100134.69
2023-04-02T09:05:12.044Z,100139.25
2023-04-02T09:07:54.751Z,100141.97
2023-04-02T09:10:45.695Z,100140.44
2023-04-02T09:13:33.889Z,100145.84
2023-04-02T09:16:14.337Z,100138.25
2023-04-02T09:19:05.986Z,100139.22
2023-04-02T09:21:51.286Z,100134.63
2023-04-02T09:24:33.447Z,100136.97
2023-04-02T09:27:09.938Z,100143.16
2023-04-02T09:29:54.906Z,100153.94
2023-04-02T09:32:54.346Z,100153.88
2023-04-02T09:35:39.443Z,100137.81
2023-04-02T09:38:44.304Z,100154.19
2023-04-02T09:41:39.376Z,100140.13
2023-04-02T09:44:32.935Z,100147.31
2023-04-02T09:47:12.115Z,100137.66
2023-04-02T09:49:57.369Z,100140.50
2023-04-02T09:52:47.201Z,100096.22
2023-04-02T09:55:41.087Z,100151.91
2023-04-02T09:58:26.154Z,100149.75
2023-04-02T10:01:04.990Z,100153.75
2023-04-02T10:03:55.478Z,100134.59
2023-04-02T10:06:38.408Z,100138.25
2023-04-02T10:09:39.539Z,100142.88
2023-04-02T10:12:22.446Z,100137.03
2023-04-02T10:15:00.287Z,100128.19
2023-04-02T10:17:51.375Z,100139.88
2023-04-02T10:20:50.420Z,100145.91
2023-04-02T10:23:32.028Z,100137.22
2023-04-02T10:26:34.212Z,100131.09
2023-04-02T10:29:39.425Z,100128.47
2023-04-02T10:32:29.203Z,100140.00
2023-04-02T10:35:15.473Z,100133.19
2023-04-02T10:38:14.380Z,100137.50
2023-04-02T10:40:54.398Z,100119.53
2023-04-02T10:44:13.136Z,100131.97
2023-04-02T10:47:06.246Z,100141.63
2023-04-02T10:49:58.256Z,100129.41
2023-04-02T10:52:44.145Z,100125.56
2023-04-02T10:55:42.237Z,100132.59
2023-04-02T10:58:33.290Z,100126.25
2023-04-02T11:01:24.220Z,100127.38
2023-04-02T11:04:14.172Z,100096.84
2023-04-02T11:07:13.201Z,100123.75
2023-04-02T11:09:57.067Z,100139.81
2023-04-02T11:12:51.667Z,100119.09
2023-04-02T11:15:28.647Z,100128.47
2023-04-02T11:18:33.808Z,100124.56
2023-04-02T11:21:57.374Z,100124.66
2023-04-02T11:24:51.237Z,100131.19
2023-04-02T11:27:33.617Z,100115.94
2023-04-02T11:30:22.838Z,100126.06
2023-04-02T11:33:36.360Z,100115.66
2023-04-02T11:37:00.034Z,100108.94
2023-04-02T11:39:54.293Z,100106.72
2023-04-02T11:42:44.766Z,100106.97
2023-04-02T11:46:07.805Z,100114.19
2023-04-02T11:48:48.550Z,100095.22
2023-04-02T11:52:05.445Z,100083.94
2023-04-02T11:54:47.837Z,100096.06
2023-04-02T11:57:34.776Z,100096.91
2023-04-02T12:00:32.305Z,100111.09
2023-04-02T12:03:38.346Z,100101.00
2023-04-02T12:06:29.526Z,100107.25
2023-04-02T12:09:23.774Z,100093.91
2023-04-02T12:12:25.012Z,100097.25
2023-04-02T12:15:09.209Z,100115.84
2023-04-02T12:17:46.337Z,100104.59
2023-04-02T12:20:32.109Z,100095.34
2023-04-02T12:23:43.591Z,100098.13
2023-04-02T12:26:47.842Z,100107.81
2023-04-02T12:29:34.882Z,100123.44
2023-04-02T12:32:29.567Z,100112.88
2023-04-02T12:35:15.044Z,100098.09
2023-04-02T12:37:57.531Z,100101.66
2023-04-02T12:40:45.218Z,100075.81
2023-04-02T12:43:34.695Z,100096.66
2023-04-02T12:46:21.437Z,100093.47
2023-04-02T12:49:18.330Z,100078.47
2023-04-02T12:55:06.770Z,100092.13
2023-04-02T12:57:54.776Z,100085.91
2023-04-02T13:00:42.129Z,100084.84
2023-04-02T13:03:31.739Z,100090.03
2023-04-02T13:06:23.676Z,100083.72
2023-04-02T13:09:06.005Z,100085.41
2023-04-02T13:11:59.650Z,100078.19
2023-04-02T13:14:43.329Z,100075.75
2023-04-02T13:17:47.205Z,100066.28
2023-04-02T13:20:40.302Z,100073.97
2023-04-02T13:23:54.382Z,100071.50
2023-04-02T13:26:36.516Z,100072.84
2023-04-02T13:29:24.850Z,100062.59
2023-04-02T13:32:06.054Z,100070.94
2023-04-02T13:34:46.942Z,100067.53
2023-04-02T13:37:24.964Z,100068.03
2023-04-02T13:40:05.456Z,100078.69
2023-04-02T13:42:46.225Z,100068.38
2023-04-02T13:45:34.480Z,100066.47
2023-04-02T13:48:31.987Z,100073.69
2023-04-02T13:51:24.259Z,100073.84
2023-04-02T13:54:09.682Z,100074.66
2023-04-02T13:56:48.139Z,100064.72
2023-04-02T13:59:24.742Z,100073.84
2023-04-02T14:02:09.246Z,100068.06
2023-04-02T14:04:55.249Z,100039.50
2023-04-02T14:07:47.948Z,100065.50
2023-04-02T14:10:38.958Z,100057.84
2023-04-02T14:16:46.836Z,100056.84
2023-04-02T14:19:39.551Z,100041.97
2023-04-02T14:22:41.242Z,100054.28
2023-04-02T14:25:32.950Z,100049.56
2023-04-02T14:28:25.558Z,100042.38
2023-04-02T14:31:11.759Z,100045.78
2023-04-02T14:33:58.800Z,100048.03
2023-04-02T14:36:40.139Z,100031.41
2023-04-02T14:39:32.833Z,100007.06
2023-04-02T14:42:20.146Z,100045.09
2023-04-02T14:45:02.301Z,100045.47
2023-04-02T14:47:41.796Z,100047.88
2023-04-02T14:50:38.330Z,100056.50
2023-04-02T14:53:27.454Z,100053.94
2023-04-02T14:56:12.955Z,100056.47
2023-04-02T14:59:01.921Z,100055.97
2023-04-02T15:01:45.386Z,100053.94
2023-04-02T15:04:29.445Z,100055.34
2023-04-02T15:07:13.503Z,100061.13
2023-04-02T15:10:09.867Z,100060.56
2023-04-02T15:12:59.936Z,100058.66
2023-04-02T15:18:43.901Z,100021.97
2023-04-02T15:21:55.830Z,100046.78
2023-04-02T15:24:57.190Z,100063.38
2023-04-02T15:28:14.829Z,100050.16
2023-04-02T15:31:04.610Z,100059.41
2023-04-02T15:33:59.037Z,100057.16
2023-04-02T15:36:48.270Z,100070.72
2023-04-02T15:39:41.278Z,100060.56
2023-04-02T15:42:35.257Z,100060.41
2023-04-02T15:45:45.327Z,100080.00
2023-04-02T15:48:43.333Z,100083.00
2023-04-02T15:51:35.291Z,100089.97
2023-04-02T15:54:24.976Z,100088.84
2023-04-02T15:57:15.051Z,100080.72
2023-04-02T16:00:28.774Z,100097.72
2023-04-02T16:03:38.122Z,100092.09
2023-04-02T16:06:34.928Z,100084.81
2023-04-02T16:09:22.475Z,100088.69
2023-04-02T16:12:08.505Z,100105.22
2023-04-02T16:14:49.559Z,100107.47
2023-04-02T16:17:32.281Z,100099.78
2023-04-02T16:20:26.427Z,100111.88
2023-04-02T16:23:16.846Z,100078.97
2023-04-02T16:26:00.234Z,100114.97
2023-04-02T16:28:46.486Z,100105.25
2023-04-02T16:31:32.521Z,100118.47
2023-04-02T16:34:29.285Z,100126.91
2023-04-02T16:37:18.530Z,100131.97
2023-04-02T16:40:19.067Z,100133.34
2023-04-02T16:42:59.879Z,100138.78
2023-04-02T16:45:40.561Z,100130.97
2023-04-02T16:48:34.026Z,100129.41
2023-04-02T16:51:28.674Z,100126.81
2023-04-02T16:54:15.582Z,100124.34
2023-04-02T16:56:58.837Z,100140.88
2023-04-02T16:59:44.687Z,100138.97
2023-04-02T17:02:50.023Z,100138.78
2023-04-02T17:05:49.696Z,100134.09
2023-04-02T17:08:37.244Z,100143.94
2023-04-02T17:11:31.755Z,100146.47
2023-04-02T17:14:18.213Z,100151.88
2023-04-02T17:17:00.128Z,100147.88
2023-04-02T17:19:39.253Z,100147.59
2023-04-02T17:22:21.505Z,100162.81
2023-04-02T17:25:04.697Z,100166.56
2023-04-02T17:27:50.287Z,100161.66
2023-04-02T17:30:48.779Z,100171.22
2023-04-02T17:33:29.159Z,100174.84
2023-04-02T17:36:33.827Z,100171.06
2023-04-02T17:39:25.917Z,100165.88
2023-04-02T17:42:19.593Z,100173.81
2023-04-02T17:45:21.433Z,100177.56
2023-04-02T17:48:07.327Z,100169.09
2023-04-02T17:50:57.030Z,100181.97
2023-04-02T17:53:58.530Z,100172.22
2023-04-02T17:56:52.998Z,100187.50
2023-04-02T17:59:52.889Z,100197.19
2023-04-02T18:02:51.733Z,100199.34
2023-04-02T18:05:51.435Z,100200.72
2023-04-02T18:08:34.158Z,100209.44
2023-04-02T18:11:18.373Z,100214.84
2023-04-02T18:14:03.192Z,100193.50
2023-04-02T18:16:52.799Z,100211.97
2023-04-02T18:19:45.573Z,100211.59
2023-04-02T18:22:29.476Z,100195.31
2023-04-02T18:25:32.224Z,100223.66
2023-04-02T18:28:20.424Z,100225.06
2023-04-02T18:31:19.566Z,100228.06
2023-04-02T18:34:45.763Z,100240.66
2023-04-02T18:37:47.318Z,100238.28
2023-04-02T18:40:43.949Z,100236.88
2023-04-02T18:43:36.428Z,100248.25
2023-04-02T18:46:27.266Z,100255.25
2023-04-02T18:49:09.633Z,100231.59
2023-04-02T18:52:05.881Z,100247.97
2023-04-02T18:54:48.143Z,100256.28
2023-04-02T18:57:37.737Z,100253.44
2023-04-02T19:00:33.190Z,100258.28
2023-04-02T19:03:20.258Z,100263.03
2023-04-02T19:06:07.405Z,100259.94
2023-04-02T19:08:48.888Z,100238.25
2023-04-02T19:11:32.330Z,100262.13
2023-04-02T19:14:14.978Z,100263.63
2023-04-02T19:17:17.121Z,100271.91
2023-04-02T19:20:11.483Z,100258.06
2023-04-02T19:22:58.953Z,100248.38
2023-04-02T19:25:58.584Z,100268.66
2023-04-02T19:29:03.375Z,100265.81
2023-04-02T19:31:59.584Z,100240.69
2023-04-02T19:34:42.391Z,100264.94
2023-04-02T19:37:22.300Z,100260.41
2023-04-02T19:40:19.377Z,100259.41
2023-04-02T19:43:04.175Z,100220.19
2023-04-02T19:45:49.819Z,100251.72
2023-04-02T19:48:35.859Z,100262.94
2023-04-02T19:51:21.070Z,100257.03
2023-04-02T19:53:58.457Z,100259.44
2023-04-02T19:56:42.166Z,100263.03
2023-04-02T19:59:18.759Z,100261.41
2023-04-02T20:02:12.723Z,100255.63
2023-04-02T20:04:57.154Z,100265.78
2023-04-02T20:07:42.690Z,100257.13
2023-04-02T20:10:30.500Z,100261.06
2023-04-02T20:13:24.564Z,100261.34
2023-04-02T20:15:58.126Z,100268.28
2023-04-02T20:18:41.935Z,100270.66
2023-04-02T20:21:17.412Z,100248.63
2023-04-02T20:23:54.414Z,100246.97
2023-04-02T20:26:33.070Z,100276.94
2023-04-02T20:29:09.979Z,100273.88
2023-04-02T20:32:13.402Z,100272.66
2023-04-02T20:35:04.981Z,100277.19
2023-04-02T20:37:42.484Z,100259.59
2023-04-02T20:40:19.583Z,100258.19
2023-04-02T20:42:57.184Z,100276.97
2023-04-02T20:45:34.747Z,100244.91
2023-04-02T20:48:14.390Z,100259.59
2023-04-02T20:50:58.857Z,100270.38
2023-04-02T20:53:39.561Z,100265.75
2023-04-02T20:56:25.825Z,100274.75
2023-04-02T20:59:19.819Z,100277.97
2023-04-02T21:01:53.791Z,100278.75
2023-04-02T21:04:32.910Z,100277.97
2023-04-02T21:07:23.712Z,100277.75
2023-04-02T21:10:09.024Z,100268.38
2023-04-02T21:12:56.738Z,100270.25
2023-04-02T21:15:42.929Z,100281.91
2023-04-02T21:18:23.454Z,100266.81
2023-04-02T21:21:16.322Z,100284.34
2023-04-02T21:23:58.068Z,100283.25
2023-04-02T21:26:34.215Z,100276.97
2023-04-02T21:29:13.419Z,100274.38
2023-04-02T21:31:49.799Z,100288.94
2023-04-02T21:34:24.578Z,100270.31
2023-04-02T21:37:08.616Z,100288.72
2023-04-02T21:40:02.524Z,100297.25
2023-04-02T21:42:54.250Z,100276.13
2023-04-02T21:45:31.055Z,100311.38
2023-04-02T21:48:12.754Z,100303.09
2023-04-02T21:50:54.091Z,100308.09
2023-04-02T21:53:29.835Z,100307.84
2023-04-02T21:56:13.156Z,100319.25
2023-04-02T21:59:00.185Z,100316.34
2023-04-02T22:01:46.741Z,100314.72
2023-04-02T22:04:27.829Z,100312.03
2023-04-02T22:07:07.697Z,100308.88
2023-04-02T22:09:48.840Z,100309.00
2023-04-02T22:12:29.992Z,100305.50
2023-04-02T22:15:06.677Z,100322.09
2023-04-02T22:17:59.425Z,100322.41
2023-04-02T22:20:40.880Z,100317.66
2023-04-02T22:23:30.275Z,100324.16
2023-04-02T22:26:10.007Z,100318.88
2023-04-02T22:28:56.727Z,100314.28
2023-04-02T22:31:35.763Z,100311.91
2023-04-02T22:34:23.225Z,100309.72
2023-04-02T22:37:01.747Z,100309.22
2023-04-02T22:39:50.354Z,100294.84
2023-04-02T22:42:36.311Z,100295.19
2023-04-02T22:45:26.181Z,100303.53
2023-04-02T22:48:16.576Z,100296.00
2023-04-02T22:51:01.658Z,100309.19
2023-04-02T22:53:48.103Z,100310.03
2023-04-02T22:56:23.336Z,100315.41
2023-04-02T22:59:06.443Z,100294.03
2023-04-02T23:01:46.552Z,100322.69
2023-04-02T23:04:32.912Z,100321.31
2023-04-02T23:07:20.940Z,100323.50
2023-04-02T23:09:58.290Z,100295.44
2023-04-02T23:12:33.393Z,100317.66
2023-04-02T23:15:17.417Z,100320.88
2023-04-02T23:18:11.719Z,100326.25
2023-04-02T23:20:54.077Z,100326.69
2023-04-02T23:23:33.341Z,100321.06
2023-04-02T23:26:25.616Z,100324.31
2023-04-02T23:29:10.223Z,100321.16
2023-04-02T23:31:49.056Z,100322.69
2023-04-02T23:34:36.068Z,100322.69
2023-04-02T23:37:25.521Z,100312.13
2023-04-02T23:40:05.495Z,100335.97
2023-04-02T23:42:37.467Z,100333.59
2023-04-02T23:45:20.419Z,100334.34
2023-04-02T23:47:54.608Z,100337.38
2023-04-02T23:50:44.610Z,100328.09
2023-04-02T23:53:37.938Z,100340.69
2023-04-02T23:56:27.679Z,100335.03
2023-04-02T23:59:13.528Z,100338.06
